createdAt,value
2018-03-30T00:01:35.607Z,1.75
2018-03-30T00:04:03.899Z,1.98
2018-03-30T00:06:31.412Z,2.00
2018-03-30T00:08:58.948Z,1.70
2018-03-30T00:11:28.327Z,2.03
2018-03-30T00:13:55.887Z,1.58
2018-03-30T00:16:23.404Z,1.60
2018-03-30T00:18:50.915Z,1.65
2018-03-30T00:21:18.460Z,1.65
2018-03-30T00:23:45.979Z,2.62
2018-03-30T00:26:13.521Z,1.50
2018-03-30T00:28:41.048Z,1.90
2018-03-30T00:31:08.584Z,1.62
2018-03-30T00:33:36.883Z,1.80
2018-03-30T00:36:04.405Z,1.58
2018-03-30T00:38:32.728Z,2.05
2018-03-30T00:41:00.237Z,1.80
2018-03-30T00:43:28.530Z,1.83
2018-03-30T00:45:56.822Z,1.80
2018-03-30T00:48:24.710Z,2.00
2018-03-30T00:50:52.260Z,1.75
2018-03-30T00:53:31.638Z,1.95
2018-03-30T00:55:59.169Z,2.03
2018-03-30T00:58:26.699Z,1.50
2018-03-30T01:00:54.222Z,2.10
2018-03-30T01:03:21.767Z,2.00
2018-03-30T01:05:49.285Z,2.03
2018-03-30T01:08:16.867Z,1.77
2018-03-30T01:10:44.386Z,1.75
2018-03-30T01:13:11.905Z,1.77
2018-03-30T01:15:39.459Z,2.30
2018-03-30T01:18:06.993Z,2.95
2018-03-30T01:20:34.537Z,2.03
2018-03-30T01:23:02.077Z,2.22
2018-03-30T01:25:29.595Z,2.08
2018-03-30T01:27:57.121Z,1.60
2018-03-30T01:30:24.652Z,2.47
2018-03-30T01:32:52.203Z,2.35
2018-03-30T01:35:20.491Z,2.28
2018-03-30T01:37:48.014Z,2.80
2018-03-30T01:40:15.551Z,2.37
2018-03-30T01:42:43.078Z,2.30
2018-03-30T01:45:10.625Z,2.10
2018-03-30T01:47:38.912Z,2.22
2018-03-30T01:50:06.492Z,2.42
2018-03-30T01:52:34.035Z,2.45
2018-03-30T01:55:01.562Z,2.45
2018-03-30T01:57:29.118Z,2.50
2018-03-30T01:59:56.647Z,2.10
2018-03-30T02:02:24.159Z,1.65
2018-03-30T02:04:51.694Z,2.03
2018-03-30T02:07:19.995Z,1.98
2018-03-30T02:09:47.536Z,2.65
2018-03-30T02:12:15.831Z,2.80
2018-03-30T02:14:43.341Z,2.40
2018-03-30T02:17:11.652Z,2.72
2018-03-30T02:19:39.943Z,2.10
2018-03-30T02:22:07.476Z,2.47
2018-03-30T02:24:35.013Z,2.33
2018-03-30T02:27:02.528Z,2.50
2018-03-30T02:29:30.068Z,2.87
2018-03-30T02:31:58.362Z,3.00
2018-03-30T02:34:25.920Z,2.00
2018-03-30T02:36:53.433Z,2.33
2018-03-30T02:39:20.960Z,2.37
2018-03-30T02:41:48.505Z,2.33
2018-03-30T02:44:16.032Z,2.05
2018-03-30T02:46:44.365Z,2.12
2018-03-30T02:49:11.878Z,2.22
2018-03-30T02:51:40.171Z,2.40
2018-03-30T02:54:07.812Z,2.60
2018-03-30T02:56:35.357Z,2.70
2018-03-30T03:01:42.183Z,2.53
2018-03-30T03:04:09.708Z,3.15
2018-03-30T03:06:38.044Z,2.67
2018-03-30T03:09:05.557Z,3.20
2018-03-30T03:11:33.844Z,3.67
2018-03-30T03:14:02.143Z,3.50
2018-03-30T03:16:29.662Z,3.30
2018-03-30T03:18:58.002Z,3.55
2018-03-30T03:21:25.518Z,3.20
2018-03-30T03:23:53.064Z,2.95
2018-03-30T03:26:21.484Z,3.47
2018-03-30T03:28:49.041Z,3.87
2018-03-30T03:31:16.647Z,2.85
2018-03-30T03:33:44.146Z,3.28
2018-03-30T03:36:11.653Z,3.40
2018-03-30T03:38:39.193Z,4.00
2018-03-30T03:41:06.709Z,3.00
2018-03-30T03:43:35.025Z,2.72
2018-03-30T03:46:02.551Z,3.65
2018-03-30T03:48:30.081Z,3.17
2018-03-30T03:50:58.378Z,3.87
2018-03-30T03:53:26.665Z,3.15
2018-03-30T03:55:54.222Z,3.28
2018-03-30T03:58:21.743Z,4.15
2018-03-30T04:00:49.254Z,3.83
2018-03-30T04:03:16.798Z,3.40
2018-03-30T04:05:44.320Z,3.65
2018-03-30T04:08:11.876Z,3.08
2018-03-30T04:10:39.394Z,3.37
2018-03-30T04:13:06.918Z,3.70
2018-03-30T04:15:35.239Z,4.30
2018-03-30T04:18:02.764Z,3.50
2018-03-30T04:20:30.330Z,3.45
2018-03-30T04:22:57.859Z,3.35
2018-03-30T04:25:25.377Z,3.20
2018-03-30T04:27:52.920Z,2.62
2018-03-30T04:30:20.438Z,3.45
2018-03-30T04:32:48.763Z,3.03
2018-03-30T04:35:16.273Z,2.97
2018-03-30T04:37:43.778Z,2.97
2018-03-30T04:40:11.315Z,3.70
2018-03-30T04:42:38.847Z,4.00
2018-03-30T04:45:06.390Z,2.83
2018-03-30T04:47:33.913Z,3.30
2018-03-30T04:50:01.478Z,3.58
2018-03-30T04:52:29.736Z,2.87
2018-03-30T04:54:57.256Z,3.65
2018-03-30T04:57:25.587Z,4.28
2018-03-30T04:59:53.099Z,3.15
2018-03-30T05:02:21.392Z,3.30
2018-03-30T05:04:48.924Z,3.10
2018-03-30T05:07:16.445Z,3.80
2018-03-30T05:09:43.996Z,3.10
2018-03-30T05:12:11.514Z,3.70
2018-03-30T05:14:39.804Z,2.55
2018-03-30T05:17:07.344Z,2.78
2018-03-30T05:19:34.866Z,3.03
2018-03-30T05:22:02.414Z,3.35
2018-03-30T05:24:29.923Z,3.17
2018-03-30T05:26:58.220Z,3.42
2018-03-30T05:29:25.758Z,3.70
2018-03-30T05:31:54.053Z,3.12
2018-03-30T05:34:21.585Z,3.58
2018-03-30T05:36:49.157Z,3.33
2018-03-30T05:39:16.708Z,3.17
2018-03-30T05:41:44.263Z,4.32
2018-03-30T05:44:11.775Z,3.33
2018-03-30T05:46:39.339Z,3.15
2018-03-30T05:49:06.846Z,3.30
2018-03-30T05:51:34.369Z,2.97
2018-03-30T05:54:01.917Z,3.00
2018-03-30T05:56:29.444Z,3.10
2018-03-30T05:58:57.760Z,3.12
2018-03-30T06:01:25.269Z,4.47
2018-03-30T06:03:53.562Z,3.53
2018-03-30T06:06:21.099Z,3.40
2018-03-30T06:08:49.389Z,3.25
2018-03-30T06:11:16.937Z,3.62
2018-03-30T06:13:45.233Z,4.07
2018-03-30T06:16:12.747Z,2.90
2018-03-30T06:18:40.281Z,3.33
2018-03-30T06:21:07.797Z,3.17
2018-03-30T06:23:36.114Z,3.45
2018-03-30T06:26:03.648Z,3.97
2018-03-30T06:28:31.183Z,3.75
2018-03-30T06:30:59.503Z,3.00
2018-03-30T06:33:27.032Z,2.00
2018-03-30T06:35:55.331Z,1.80
2018-03-30T06:38:22.837Z,1.70
2018-03-30T06:40:50.361Z,1.45
2018-03-30T06:43:17.921Z,1.80
2018-03-30T06:45:45.433Z,2.30
2018-03-30T06:48:13.722Z,2.15
2018-03-30T06:50:42.045Z,1.80
2018-03-30T06:53:09.564Z,1.87
2018-03-30T06:55:37.083Z,1.50
2018-03-30T06:58:04.644Z,1.67
2018-03-30T07:00:32.162Z,1.50
2018-03-30T07:02:59.681Z,1.58
2018-03-30T07:05:28.011Z,1.65
2018-03-30T07:07:55.541Z,1.95
2018-03-30T07:10:23.076Z,2.85
2018-03-30T07:12:51.375Z,1.90
2018-03-30T07:15:18.906Z,2.30
2018-03-30T07:17:47.215Z,2.33
2018-03-30T07:20:14.739Z,2.20
2018-03-30T07:22:42.282Z,2.03
2018-03-30T07:25:09.800Z,3.00
2018-03-30T07:27:37.352Z,4.28
2018-03-30T07:30:04.881Z,3.55
2018-03-30T07:32:32.421Z,3.58
2018-03-30T07:34:59.974Z,3.25
2018-03-30T07:37:27.502Z,3.10
2018-03-30T07:39:55.041Z,3.67
2018-03-30T07:42:22.563Z,2.70
2018-03-30T07:44:50.096Z,2.03
2018-03-30T07:47:17.618Z,1.85
2018-03-30T07:49:45.161Z,1.70
2018-03-30T07:52:13.438Z,1.80
2018-03-30T07:54:40.967Z,1.83
2018-03-30T07:57:08.503Z,1.70
2018-03-30T07:59:36.015Z,2.12
2018-03-30T08:02:03.826Z,1.40
2018-03-30T08:04:31.345Z,1.50
2018-03-30T08:06:58.873Z,1.62
2018-03-30T08:09:26.408Z,2.00
2018-03-30T08:11:53.941Z,1.17
2018-03-30T08:14:21.455Z,2.65
2018-03-30T08:16:48.997Z,1.90
2018-03-30T08:19:16.628Z,1.17
2018-03-30T08:21:44.142Z,1.52
2018-03-30T08:24:12.443Z,1.60
2018-03-30T08:26:39.980Z,1.35
2018-03-30T08:29:08.278Z,1.52
2018-03-30T08:31:35.821Z,1.00
2018-03-30T08:34:03.480Z,1.10
2018-03-30T08:36:30.997Z,1.17
2018-03-30T08:38:58.556Z,1.40
2018-03-30T08:41:26.074Z,1.45
2018-03-30T08:43:53.589Z,1.30
2018-03-30T08:46:21.147Z,1.12
2018-03-30T08:48:48.650Z,1.00
2018-03-30T08:51:16.187Z,1.15
2018-03-30T08:53:44.530Z,1.08
2018-03-30T08:56:12.066Z,1.17
2018-03-30T08:58:39.604Z,0.93
2018-03-30T09:01:07.144Z,1.10
2018-03-30T09:03:35.428Z,1.37
2018-03-30T09:06:03.774Z,1.10
2018-03-30T09:08:31.311Z,1.00
2018-03-30T09:10:58.860Z,1.35
2018-03-30T09:13:26.404Z,1.10
2018-03-30T09:15:53.948Z,1.10
2018-03-30T09:18:21.519Z,1.08
2018-03-30T09:20:49.047Z,1.70
2018-03-30T09:23:17.345Z,1.60
2018-03-30T09:25:44.877Z,1.30
2018-03-30T09:28:13.182Z,0.77
2018-03-30T09:30:40.770Z,2.40
2018-03-30T09:36:04.110Z,0.90
2018-03-30T09:38:32.399Z,1.30
2018-03-30T09:40:59.925Z,1.27
2018-03-30T09:43:27.467Z,1.40
2018-03-30T09:45:54.978Z,10.98
2018-03-30T09:48:22.545Z,1.50
2018-03-30T09:50:50.087Z,5.07
2018-03-30T09:53:18.363Z,1.20
2018-03-30T09:55:45.924Z,2.05
2018-03-30T09:58:13.466Z,1.35
2018-03-30T10:00:43.528Z,1.42
2018-03-30T10:03:11.078Z,1.35
2018-03-30T10:05:38.608Z,3.03
2018-03-30T10:08:07.011Z,2.40
2018-03-30T10:10:34.534Z,1.55
2018-03-30T10:13:02.848Z,1.37
2018-03-30T10:15:30.390Z,0.90
2018-03-30T10:17:57.926Z,0.80
2018-03-30T10:20:26.272Z,1.00
2018-03-30T10:22:53.796Z,1.62
2018-03-30T10:25:22.098Z,1.50
2018-03-30T10:27:49.678Z,0.95
2018-03-30T10:30:17.213Z,0.82
2018-03-30T10:32:44.738Z,0.70
2018-03-30T10:35:12.298Z,0.70
2018-03-30T10:37:39.833Z,0.50
2018-03-30T10:40:07.351Z,0.67
2018-03-30T10:42:34.900Z,0.50
2018-03-30T10:45:03.186Z,0.70
2018-03-30T10:47:30.732Z,0.50
2018-03-30T10:49:58.286Z,0.50
2018-03-30T10:52:25.818Z,0.70
2018-03-30T10:54:54.097Z,0.70
2018-03-30T10:57:22.438Z,0.77
2018-03-30T10:59:49.980Z,0.60
2018-03-30T11:02:17.492Z,0.63
2018-03-30T11:04:45.815Z,0.63
2018-03-30T11:07:13.344Z,0.80
2018-03-30T11:09:40.875Z,0.60
2018-03-30T11:12:08.436Z,0.53
2018-03-30T11:14:35.960Z,0.70
2018-03-30T11:17:03.490Z,0.60
2018-03-30T11:19:31.046Z,0.60
2018-03-30T11:21:58.575Z,0.77
2018-03-30T11:24:26.086Z,1.03
2018-03-30T11:26:53.636Z,0.63
2018-03-30T11:29:21.163Z,0.67
2018-03-30T11:31:49.458Z,0.70
2018-03-30T11:34:17.029Z,1.00
2018-03-30T11:36:44.546Z,0.80
2018-03-30T11:39:12.857Z,1.03
2018-03-30T11:41:40.405Z,5.63
2018-03-30T11:44:07.927Z,3.60
2018-03-30T11:46:35.455Z,4.57
2018-03-30T11:49:03.027Z,15.20
2018-03-30T11:51:30.546Z,3.60
2018-03-30T11:53:58.072Z,2.60
2018-03-30T11:56:25.615Z,5.33
2018-03-30T11:58:53.130Z,4.00
2018-03-30T12:01:20.660Z,7.10
2018-03-30T12:03:48.994Z,7.83
2018-03-30T12:06:16.520Z,3.10
2018-03-30T12:08:44.044Z,1.00
2018-03-30T12:11:11.590Z,1.40
2018-03-30T12:13:39.110Z,1.20
2018-03-30T12:16:06.652Z,0.93
2018-03-30T12:18:34.212Z,0.90
2018-03-30T12:21:01.738Z,1.10
2018-03-30T12:23:29.272Z,1.30
2018-03-30T12:25:56.840Z,1.10
2018-03-30T12:28:24.364Z,1.30
2018-03-30T12:30:51.884Z,1.43
2018-03-30T12:33:20.216Z,1.10
2018-03-30T12:35:47.753Z,1.90
2018-03-30T12:38:15.270Z,2.13
2018-03-30T12:40:42.828Z,1.33
2018-03-30T12:43:10.371Z,1.60
2018-03-30T12:45:37.914Z,1.43
2018-03-30T12:48:05.474Z,1.50
2018-03-30T12:50:33.023Z,2.10
2018-03-30T12:53:00.543Z,2.13
2018-03-30T12:55:28.110Z,2.57
2018-03-30T12:57:55.642Z,2.13
2018-03-30T13:00:23.177Z,2.30
2018-03-30T13:02:50.747Z,1.90
2018-03-30T13:05:18.277Z,2.80
2018-03-30T13:07:45.811Z,3.00
2018-03-30T13:10:13.368Z,2.30
2018-03-30T13:12:40.896Z,2.63
2018-03-30T13:15:08.411Z,2.30
2018-03-30T13:17:35.967Z,2.33
2018-03-30T13:20:03.485Z,2.10
2018-03-30T13:22:31.777Z,2.37
2018-03-30T13:24:59.336Z,2.40
2018-03-30T13:27:27.096Z,2.97
2018-03-30T13:29:55.379Z,2.60
2018-03-30T13:32:22.938Z,2.60
2018-03-30T13:34:50.460Z,2.70
2018-03-30T13:37:17.985Z,2.30
2018-03-30T13:39:45.535Z,2.60
2018-03-30T13:42:13.105Z,2.40
2018-03-30T13:44:40.620Z,2.50
2018-03-30T13:47:08.935Z,3.00
2018-03-30T13:49:36.455Z,2.20
2018-03-30T13:52:11.596Z,2.30
2018-03-30T13:54:40.782Z,2.60
2018-03-30T13:57:28.715Z,3.00
2018-03-30T13:59:58.183Z,2.13
2018-03-30T14:02:33.496Z,2.40
2018-03-30T14:05:04.723Z,2.53
2018-03-30T14:07:56.891Z,2.50
2018-03-30T14:10:27.366Z,2.00
2018-03-30T14:12:56.510Z,2.53
2018-03-30T14:15:29.819Z,2.20
2018-03-30T14:18:12.949Z,2.30
2018-03-30T14:20:43.072Z,2.23
2018-03-30T14:23:11.350Z,2.13
2018-03-30T14:25:38.907Z,1.77
2018-03-30T14:28:10.903Z,2.43
2018-03-30T14:30:50.195Z,3.60
2018-03-30T14:33:19.605Z,5.37
2018-03-30T14:35:50.675Z,3.13
2018-03-30T14:38:28.866Z,3.23
2018-03-30T14:40:56.417Z,2.60
2018-03-30T14:43:24.703Z,4.93
2018-03-30T14:46:01.915Z,2.70
2018-03-30T14:48:31.354Z,1.80
2018-03-30T14:54:35.867Z,5.77
2018-03-30T15:00:20.019Z,7.30
2018-03-30T15:02:53.769Z,4.80
2018-03-30T15:18:59.647Z,3.80
2018-03-30T15:21:37.893Z,7.27
2018-03-30T15:24:10.079Z,3.50
2018-03-30T15:26:59.518Z,1.90
2018-03-30T15:29:31.514Z,1.10
2018-03-30T15:35:01.474Z,3.07
2018-03-30T15:37:29.744Z,5.23
2018-03-30T15:40:10.061Z,6.87
2018-03-30T15:42:40.490Z,10.33
2018-03-30T15:48:07.462Z,4.60
2018-03-30T15:50:35.789Z,2.10
2018-03-30T15:53:03.310Z,1.43
2018-03-30T15:55:31.608Z,6.17
2018-03-30T15:57:59.188Z,6.63
2018-03-30T16:00:26.707Z,1.90
2018-03-30T16:02:54.998Z,2.50
2018-03-30T16:05:22.541Z,1.40
2018-03-30T16:07:50.847Z,1.47
2018-03-30T16:10:24.183Z,2.83
2018-03-30T16:12:53.554Z,1.90
2018-03-30T16:15:21.084Z,5.07
2018-03-30T16:17:49.407Z,5.20
2018-03-30T16:20:16.447Z,3.90
2018-03-30T16:22:43.487Z,4.50
2018-03-30T16:25:10.567Z,3.07
2018-03-30T16:27:37.628Z,3.27
2018-03-30T16:30:04.673Z,3.60
2018-03-30T16:32:31.733Z,6.20
2018-03-30T16:34:59.602Z,2.57
2018-03-30T16:37:27.423Z,2.47
2018-03-30T16:39:54.499Z,3.63
2018-03-30T16:42:21.550Z,5.20
2018-03-30T16:44:48.595Z,2.40
2018-03-30T16:47:15.673Z,2.43
2018-03-30T16:49:42.696Z,2.23
2018-03-30T16:52:10.485Z,7.40
2018-03-30T16:54:37.547Z,4.30
2018-03-30T16:57:04.597Z,1.90
2018-03-30T16:59:31.675Z,1.87
2018-03-30T17:01:58.707Z,1.27
2018-03-30T17:04:25.776Z,0.70
2018-03-30T17:06:52.826Z,1.00
2018-03-30T17:09:19.902Z,0.80
2018-03-30T17:11:47.690Z,1.23
2018-03-30T17:14:14.723Z,0.90
2018-03-30T17:16:42.560Z,1.40
2018-03-30T17:19:09.590Z,1.00
2018-03-30T17:21:36.632Z,1.00
2018-03-30T17:24:03.716Z,0.90
2018-03-30T17:26:31.527Z,1.13
2018-03-30T17:28:58.576Z,1.00
2018-03-30T17:31:25.625Z,1.40
2018-03-30T17:33:52.654Z,1.20
2018-03-30T17:36:19.711Z,1.60
2018-03-30T17:38:46.752Z,1.27
2018-03-30T17:41:13.825Z,1.00
2018-03-30T17:43:40.877Z,1.60
2018-03-30T17:46:07.915Z,1.27
2018-03-30T17:48:34.978Z,1.30
2018-03-30T17:51:02.063Z,1.10
2018-03-30T17:53:29.874Z,1.33
2018-03-30T17:55:56.932Z,1.23
2018-03-30T17:58:24.011Z,1.30
2018-03-30T18:00:51.064Z,1.20
2018-03-30T18:03:18.885Z,1.50
2018-03-30T18:05:45.946Z,1.50
2018-03-30T18:08:12.992Z,1.90
2018-03-30T18:10:40.039Z,2.40
2018-03-30T18:13:07.110Z,3.50
2018-03-30T18:15:34.159Z,4.70
2018-03-30T18:18:01.197Z,5.43
2018-03-30T18:20:28.253Z,5.20
2018-03-30T18:22:55.277Z,5.23
2018-03-30T18:25:22.348Z,3.33
2018-03-30T18:27:49.386Z,4.30
2018-03-30T18:30:16.426Z,3.80
2018-03-30T18:32:43.492Z,3.80
2018-03-30T18:35:10.602Z,3.83
2018-03-30T18:37:37.651Z,3.10
2018-03-30T18:40:04.683Z,3.40
2018-03-30T18:42:31.748Z,3.50
2018-03-30T18:44:58.802Z,3.50
2018-03-30T18:47:25.849Z,2.83
2018-03-30T18:49:52.912Z,3.10
2018-03-30T18:52:19.948Z,3.07
2018-03-30T18:54:46.987Z,3.43
2018-03-30T18:57:14.041Z,4.70
2018-03-30T18:59:41.081Z,4.53
2018-03-30T19:02:08.143Z,4.32
2018-03-30T19:04:35.201Z,4.80
2018-03-30T19:07:02.255Z,4.97
2018-03-30T19:09:29.312Z,4.20
2018-03-30T19:11:57.124Z,3.65
2018-03-30T19:14:24.242Z,3.60
2018-03-30T19:16:51.251Z,2.90
2018-03-30T19:19:18.283Z,5.30
2018-03-30T19:21:45.333Z,4.82
2018-03-30T19:24:12.381Z,4.12
2018-03-30T19:26:39.462Z,4.00
2018-03-30T19:29:07.281Z,4.40
2018-03-30T19:31:34.326Z,5.17
2018-03-30T19:34:01.388Z,4.05
2018-03-30T19:36:28.430Z,5.57
2018-03-30T19:38:55.515Z,5.07
2018-03-30T19:41:22.564Z,5.40
2018-03-30T19:43:49.602Z,5.00
2018-03-30T19:46:16.674Z,5.47
2018-03-30T19:48:44.479Z,5.13
2018-03-30T19:51:11.679Z,4.47
2018-03-30T19:53:38.701Z,4.20
2018-03-30T19:56:05.740Z,2.33
2018-03-30T19:58:32.811Z,2.40
2018-03-30T20:00:59.858Z,2.03
2018-03-30T20:03:26.926Z,2.40
2018-03-30T20:05:54.959Z,1.70
2018-03-30T20:08:22.007Z,1.90
2018-03-30T20:10:49.082Z,1.43
2018-03-30T20:13:16.116Z,1.80
2018-03-30T20:15:43.179Z,2.13
2018-03-30T20:18:10.983Z,2.50
2018-03-30T20:20:38.016Z,2.40
2018-03-30T20:23:05.057Z,2.00
2018-03-30T20:25:32.123Z,1.93
2018-03-30T20:27:59.243Z,1.77
2018-03-30T20:30:27.064Z,2.20
2018-03-30T20:32:54.102Z,2.40
2018-03-30T20:35:21.150Z,2.47
2018-03-30T20:37:48.198Z,2.17
2018-03-30T20:40:15.253Z,2.90
2018-03-30T20:42:42.375Z,2.70
2018-03-30T20:45:10.344Z,2.60
2018-03-30T20:47:37.417Z,2.70
2018-03-30T20:50:04.471Z,3.73
2018-03-30T20:52:31.542Z,3.90
2018-03-30T20:54:58.590Z,3.90
2018-03-30T20:57:25.636Z,3.70
2018-03-30T20:59:52.692Z,3.63
2018-03-30T21:02:19.724Z,3.70
2018-03-30T21:04:46.796Z,4.33
2018-03-30T21:07:14.616Z,5.33
2018-03-30T21:09:41.654Z,3.70
2018-03-30T21:12:08.713Z,3.42
2018-03-30T21:14:35.759Z,3.70
2018-03-30T21:17:02.827Z,3.50
2018-03-30T21:19:29.875Z,3.42
2018-03-30T21:21:56.916Z,3.47
2018-03-30T21:24:23.979Z,3.42
2018-03-30T21:26:51.008Z,3.87
2018-03-30T21:29:18.068Z,3.33
2018-03-30T21:31:45.142Z,3.33
2018-03-30T21:34:12.938Z,3.43
2018-03-30T21:39:14.304Z,3.30
2018-03-30T21:41:41.374Z,2.55
2018-03-30T21:44:08.421Z,3.25
2018-03-30T21:46:35.461Z,3.45
2018-03-30T21:49:02.539Z,2.15
2018-03-30T21:51:29.591Z,2.60
2018-03-30T21:53:56.663Z,2.25
2018-03-30T21:56:24.480Z,2.20
2018-03-30T21:58:51.529Z,2.03
2018-03-30T22:01:18.584Z,2.10
2018-03-30T22:03:45.640Z,2.42
2018-03-30T22:06:12.709Z,2.10
2018-03-30T22:08:40.507Z,1.80
2018-03-30T22:11:07.539Z,1.85
2018-03-30T22:13:34.698Z,1.70
2018-03-30T22:16:01.738Z,1.25
2018-03-30T22:18:28.802Z,1.37
2018-03-30T22:20:55.847Z,1.60
2018-03-30T22:23:22.873Z,1.90
2018-03-30T22:25:50.694Z,1.30
2018-03-30T22:28:17.734Z,1.40
2018-03-30T22:30:44.790Z,1.30
2018-03-30T22:33:11.895Z,1.37
2018-03-30T22:35:38.899Z,1.40
2018-03-30T22:38:05.940Z,1.67
2018-03-30T22:40:32.980Z,1.40
2018-03-30T22:43:00.042Z,1.30
2018-03-30T22:45:27.090Z,1.00
2018-03-30T22:47:54.146Z,1.00
2018-03-30T22:50:21.980Z,1.05
2018-03-30T22:52:49.027Z,1.85
2018-03-30T22:55:16.087Z,0.93
2018-03-30T22:57:43.120Z,0.90
2018-03-30T23:00:10.153Z,0.80
2018-03-30T23:02:37.186Z,0.88
2018-03-30T23:05:04.203Z,0.98
2018-03-30T23:07:32.063Z,0.70
2018-03-30T23:09:59.086Z,0.77
2018-03-30T23:12:26.119Z,0.75
2018-03-30T23:14:53.263Z,0.60
2018-03-30T23:17:20.305Z,0.75
2018-03-30T23:19:47.367Z,0.95
2018-03-30T23:22:14.427Z,0.60
2018-03-30T23:24:41.469Z,0.50
2018-03-30T23:27:09.282Z,0.45
2018-03-30T23:29:37.078Z,0.45
2018-03-30T23:32:04.140Z,0.40
2018-03-30T23:34:31.174Z,0.50
2018-03-30T23:36:58.200Z,0.40
2018-03-30T23:39:25.257Z,0.40
2018-03-30T23:41:52.299Z,0.47
2018-03-30T23:44:19.366Z,0.40
2018-03-30T23:46:46.402Z,0.40
2018-03-30T23:49:13.421Z,0.40
2018-03-30T23:51:41.344Z,0.40
2018-03-30T23:54:08.379Z,0.40
2018-03-30T23:56:35.404Z,0.40
2018-03-30T23:59:02.468Z,0.40
